Time;durP1;ratioP1;P1;durP2;ratioP2;P2;SDS_P1;SDS_P2;PMS_P1;PMS_P2;Temp;Humidity;BMP_temperature;BMP_pressure;BME280_temperature;BME280_humidity;BME280_pressure;Samples;Min_cycle;Max_cycle;Signal;HPM_P1;HPM_P2
2023/02/23 00:02:22;;;;;;;1.17;0.95;;;;;;;6.42;77.94;99581.16;5094575;28;20093;-66
2023/02/23 00:04:51;;;;;;;0.40;0.40;;;;;;;6.44;78.02;99584.56;5094442;28;20048;-66
2023/02/23 00:07:20;;;;;;;1.23;1.17;;;;;;;6.45;77.91;99576.13;5094450;28;20285;-66
2023/02/23 00:09:49;;;;;;;0.68;0.68;;;;;;;6.49;78.16;99572.81;5094872;28;20071;-66
2023/02/23 00:12:19;;;;;;;1.48;1.15;;;;;;;6.49;77.93;99580.41;5094384;28;20047;-66
2023/02/23 00:14:50;;;;;;;1.15;1.05;;;;;;;6.52;77.65;99577.94;5094362;28;20040;-65
2023/02/23 00:17:18;;;;;;;6.85;2.65;;;;;;;6.50;77.48;99574.50;5094337;28;20489;-65
2023/02/23 00:19:48;;;;;;;0.82;0.82;;;;;;;6.47;77.58;99569.41;5093957;28;20045;-65
2023/02/23 00:22:17;;;;;;;0.85;0.85;;;;;;;6.51;77.98;99577.88;5094102;28;20060;-66
2023/02/23 00:24:46;;;;;;;1.37;1.27;;;;;;;6.51;77.28;99576.22;5094146;28;20398;-66
2023/02/23 00:27:19;;;;;;;5.30;1.67;;;;;;;6.49;77.43;99570.28;5094470;28;20303;-66
2023/02/23 00:29:51;;;;;;;0.52;0.52;;;;;;;6.56;77.36;99569.53;5094060;28;20059;-67
2023/02/23 00:32:22;;;;;;;1.85;1.73;;;;;;;6.58;77.75;99570.38;5094091;28;20051;-66
2023/02/23 00:34:52;;;;;;;0.88;0.88;;;;;;;6.59;77.71;99578.84;5093886;28;20118;-67
2023/02/23 00:37:22;;;;;;;1.47;1.10;;;;;;;6.60;77.51;99586.47;5092793;28;20091;-66
2023/02/23 00:39:55;;;;;;;2.58;1.58;;;;;;;6.58;77.34;99578.00;5093961;28;20606;-67
2023/02/23 00:42:28;;;;;;;0.95;0.95;;;;;;;6.62;78.15;99569.59;5094239;28;20048;-66
2023/02/23 00:45:07;;;;;;;0.75;0.75;;;;;;;6.59;77.30;99574.63;5093801;28;20040;-66
2023/02/23 00:47:37;;;;;;;0.50;0.50;;;;;;;6.62;77.88;99573.84;5094452;28;20371;-67
2023/02/23 00:50:11;;;;;;;1.42;1.33;;;;;;;6.64;77.36;99575.56;5093738;28;20494;-66
2023/02/23 00:52:42;;;;;;;0.90;0.90;;;;;;;6.64;76.89;99577.22;5093814;28;20128;-66
2023/02/23 00:55:12;;;;;;;1.08;0.98;;;;;;;6.64;76.98;99578.09;5092866;28;20444;-65
2023/02/23 00:57:41;;;;;;;1.48;1.38;;;;;;;6.62;76.77;99574.66;5093771;28;20093;-66
2023/02/23 01:00:18;;;;;;;1.40;1.27;;;;;;;6.59;76.99;99574.63;5093617;28;20040;-66
2023/02/23 01:02:48;;;;;;;1.15;1.13;;;;;;;6.61;77.04;99572.97;5093657;28;20127;-66
2023/02/23 01:05:19;;;;;;;0.73;0.73;;;;;;;6.61;76.89;99583.13;5093527;28;20040;-66
2023/02/23 01:07:48;;;;;;;0.85;0.85;;;;;;;6.57;76.84;99576.31;5093573;28;20546;-67
2023/02/23 01:10:19;;;;;;;1.30;0.77;;;;;;;6.58;76.80;99578.00;5093602;28;20098;-66
2023/02/23 01:12:50;;;;;;;0.50;0.50;;;;;;;6.56;76.16;99569.53;5093510;28;20048;-65
2023/02/23 01:15:21;;;;;;;1.38;1.25;;;;;;;6.51;76.33;99568.59;5092378;28;20047;-66
2023/02/23 01:17:50;;;;;;;0.85;0.85;;;;;;;6.57;76.73;99571.25;5092661;28;20375;-66
2023/02/23 01:20:19;;;;;;;0.67;0.67;;;;;;;6.58;76.73;99570.38;5091972;28;20052;-66
2023/02/23 01:22:50;;;;;;;0.93;0.93;;;;;;;6.55;76.93;99567.81;5093708;28;20777;-66
2023/02/23 01:25:19;;;;;;;2.05;1.65;;;;;;;6.53;76.19;99564.41;5093420;28;20040;-66
2023/02/23 01:27:48;;;;;;;1.60;1.10;;;;;;;6.57;76.39;99563.63;5092520;28;20399;-66
2023/02/23 01:30:17;;;;;;;0.90;0.83;;;;;;;6.58;76.96;99562.78;5092524;28;20420;-66
2023/02/23 01:32:48;;;;;;;2.10;1.98;;;;;;;6.50;76.48;99554.22;5093324;28;20290;-66
2023/02/23 01:35:17;;;;;;;0.98;0.93;;;;;;;6.55;76.73;99555.13;5092234;28;20050;-66
2023/02/23 01:37:45;;;;;;;8.90;1.33;;;;;;;6.54;76.49;99553.44;5092139;28;20086;-66
2023/02/23 01:40:27;;;;;;;0.57;0.57;;;;;;;6.55;76.23;99554.31;5093305;28;20048;-66
2023/02/23 01:42:59;;;;;;;1.35;1.25;;;;;;;6.57;76.64;99555.16;5093240;28;20052;-66
2023/02/23 01:45:33;;;;;;;2.90;1.35;;;;;;;6.55;76.17;99552.59;5093223;28;20047;-66
2023/02/23 01:48:11;;;;;;;0.43;0.43;;;;;;;6.52;76.09;99547.50;5095496;28;20051;-66
2023/02/23 01:50:47;;;;;;;0.60;0.60;;;;;;;6.52;75.94;99542.44;5095934;28;20489;-66
2023/02/23 01:53:20;;;;;;;0.50;0.50;;;;;;;6.53;76.16;99545.78;5097038;28;20059;-65
2023/02/23 01:55:50;;;;;;;2.17;1.95;;;;;;;6.53;76.61;99544.13;5097362;28;20062;-66
2023/02/23 01:58:20;;;;;;;2.58;2.38;;;;;;;6.52;76.41;99542.44;5095819;28;20048;-66
2023/02/23 02:00:53;;;;;;;0.45;0.45;;;;;;;6.50;75.96;99541.53;5096079;28;20040;-66
2023/02/23 02:03:31;;;;;;;0.90;0.90;;;;;;;6.51;76.28;99538.19;5095981;28;20040;-66
2023/02/23 02:06:01;;;;;;;0.70;0.70;;;;;;;6.54;76.29;99545.84;5096799;28;20036;-66
2023/02/23 02:08:32;;;;;;;1.55;1.45;;;;;;;6.52;76.15;99542.44;5095619;28;20048;-66
2023/02/23 02:11:08;;;;;;;0.82;0.82;;;;;;;6.46;76.23;99534.72;5096781;28;20055;-66
2023/02/23 02:13:39;;;;;;;3.28;1.55;;;;;;;6.53;76.30;99546.66;5096670;28;20055;-66
2023/02/23 02:16:33;;;;;;;6.05;1.65;;;;;;;6.56;75.77;99544.16;5096658;28;20044;-66
2023/02/23 02:19:37;;;;;;;0.60;0.60;;;;;;;6.57;75.71;99548.41;5095392;28;20068;-66
2023/02/23 02:22:27;;;;;;;1.00;0.95;;;;;;;6.54;76.12;99550.06;5084211;28;20426;-67
2023/02/23 02:25:10;;;;;;;;;;;;;;;6.52;76.43;99552.56;5095750;28;20098;-66
2023/02/23 02:28:11;;;;;;;1.45;1.00;;;;;;;6.53;75.97;99550.88;5096785;28;19942;-66
2023/02/23 02:30:56;;;;;;;1.10;1.05;;;;;;;6.59;75.92;99548.44;5096681;28;20405;-66
2023/02/23 02:33:45;;;;;;;1.08;1.02;;;;;;;6.59;75.91;99543.34;5095176;28;20102;-66
2023/02/23 02:36:41;;;;;;;1.63;1.52;;;;;;;6.58;75.73;99546.72;5096585;28;20044;-66
2023/02/23 02:39:22;;;;;;;2.88;2.67;;;;;;;6.56;75.73;99548.38;5096559;28;20043;-66
2023/02/23 02:42:01;;;;;;;0.50;0.50;;;;;;;6.57;76.12;99545.88;5096200;28;20094;-66
2023/02/23 02:44:40;;;;;;;1.33;1.27;;;;;;;6.59;75.57;99540.81;5096119;28;20108;-66
2023/02/23 02:47:17;;;;;;;0.60;0.60;;;;;;;6.58;75.81;99547.56;5094822;28;20128;-67
2023/02/23 02:49:58;;;;;;;0.40;0.40;;;;;;;6.56;75.44;99549.25;5096062;28;20055;-66
2023/02/23 02:52:31;;;;;;;1.42;1.33;;;;;;;6.56;75.51;99545.84;5096334;28;20066;-66
2023/02/23 02:55:11;;;;;;;0.95;0.95;;;;;;;6.56;75.65;99549.25;5095853;28;20066;-66
2023/02/23 02:57:42;;;;;;;1.65;1.55;;;;;;;6.53;75.42;99544.13;5096189;28;20495;-66
2023/02/23 04:19:52;;;;;;;1.15;1.08;;;;;;;6.49;75.47;99560.13;5094564;28;20398;-66
2023/02/23 04:22:22;;;;;;;1.42;1.33;;;;;;;6.51;75.79;99560.13;5092901;28;20102;-66
2023/02/23 04:24:51;;;;;;;0.50;0.50;;;;;;;6.49;75.75;99557.59;5094283;28;20048;-66
2023/02/23 04:27:20;;;;;;;;;;;;;;;6.48;76.19;99566.03;5094476;28;20044;-66
2023/02/23 04:29:50;;;;;;;0.45;0.45;;;;;;;6.47;75.97;99558.41;5094046;28;19965;-66
2023/02/23 04:32:20;;;;;;;1.55;1.20;;;;;;;6.49;76.31;99556.75;5094355;28;20502;-66
2023/02/23 04:34:50;;;;;;;0.50;0.50;;;;;;;6.47;76.49;99564.34;5094103;28;20058;-66
2023/02/23 04:37:18;;;;;;;1.27;1.20;;;;;;;6.47;75.78;99551.66;5094319;28;20056;-66
2023/02/23 04:39:49;;;;;;;0.50;0.50;;;;;;;6.50;75.97;99559.28;5093966;28;20115;-66
2023/02/23 04:42:18;;;;;;;1.02;0.85;;;;;;;6.49;76.24;99562.66;5094034;28;20130;-67
2023/02/23 04:44:47;;;;;;;1.13;1.02;;;;;;;6.48;76.02;99555.88;5094187;28;20040;-66
2023/02/23 04:47:16;;;;;;;1.17;1.00;;;;;;;6.49;75.70;99552.53;5093759;28;20156;-66
2023/02/23 04:49:47;;;;;;;2.10;1.67;;;;;;;6.54;76.50;99561.03;5093767;28;20047;-66
2023/02/23 04:52:15;;;;;;;0.80;0.80;;;;;;;6.56;76.34;99553.44;5093836;28;20076;-66
2023/02/23 04:54:44;;;;;;;4.63;2.10;;;;;;;6.53;75.83;99559.34;5094089;28;20040;-66
2023/02/23 04:57:13;;;;;;;1.08;1.00;;;;;;;6.52;75.70;99557.66;5092560;28;20123;-66
2023/02/23 04:59:42;;;;;;;2.20;1.10;;;;;;;6.51;76.26;99561.00;5093908;28;20505;-66
2023/02/23 05:02:11;;;;;;;0.77;0.77;;;;;;;6.51;76.36;99550.84;5093635;28;20131;-66
2023/02/23 05:04:40;;;;;;;1.10;1.05;;;;;;;6.53;76.06;99546.66;5093667;28;20044;-67
2023/02/23 05:07:10;;;;;;;10.13;1.33;;;;;;;6.56;75.82;99549.25;5093869;28;20074;-66
2023/02/23 05:09:39;;;;;;;2.75;1.92;;;;;;;6.54;76.39;99555.97;5093612;28;20066;-66
2023/02/23 05:12:09;;;;;;;1.48;1.38;;;;;;;6.55;76.31;99552.59;5093810;28;20382;-67
2023/02/23 05:14:38;;;;;;;2.88;0.75;;;;;;;6.52;76.31;99552.56;5093848;28;20493;-66
2023/02/23 05:17:07;;;;;;;0.90;0.85;;;;;;;6.52;75.88;99557.66;5093588;28;20048;-66
2023/02/23 05:19:36;;;;;;;2.03;1.20;;;;;;;6.54;76.25;99555.97;5094099;28;20044;-66
2023/02/23 05:22:05;;;;;;;0.57;0.57;;;;;;;6.57;76.27;99561.09;5094094;28;20044;-66
2023/02/23 05:24:35;;;;;;;0.40;0.40;;;;;;;6.55;76.54;99560.19;5098013;28;20044;-66
2023/02/23 05:27:05;;;;;;;0.88;0.85;;;;;;;6.56;76.44;99561.91;5097587;28;20075;-66
2023/02/23 05:29:34;;;;;;;0.85;0.77;;;;;;;6.58;76.26;99562.78;5097553;28;20127;-66
2023/02/23 05:32:02;;;;;;;0.20;0.20;;;;;;;6.57;75.99;99561.09;5097412;28;20044;-66
2023/02/23 05:34:31;;;;;;;0.30;0.30;;;;;;;6.59;76.13;99567.03;5097398;28;20043;-66
2023/02/23 05:37:00;;;;;;;1.70;1.60;;;;;;;6.58;75.87;99567.84;5097318;28;20139;-66
2023/02/23 05:39:29;;;;;;;1.13;0.98;;;;;;;6.60;75.91;99563.66;5097281;28;20406;-66
2023/02/23 05:41:59;;;;;;;1.48;1.02;;;;;;;6.58;75.61;99567.84;5097201;28;20123;-66
2023/02/23 05:44:28;;;;;;;0.30;0.30;;;;;;;6.57;75.79;99571.25;5097358;28;20052;-66
2023/02/23 05:46:57;;;;;;;2.47;1.50;;;;;;;6.56;76.33;99569.53;5097474;28;20048;-66
2023/02/23 05:49:26;;;;;;;0.57;0.57;;;;;;;6.62;75.99;99574.66;5097185;28;20561;-66
2023/02/23 05:51:54;;;;;;;0.52;0.52;;;;;;;6.66;76.02;99580.63;5097067;28;20075;-66
2023/02/23 05:54:23;;;;;;;0.75;0.75;;;;;;;6.69;75.83;99576.44;5097370;28;20028;-67
2023/02/23 05:56:52;;;;;;;1.48;1.38;;;;;;;6.70;75.94;99575.63;5097023;28;20444;-66
2023/02/23 05:59:22;;;;;;;0.52;0.52;;;;;;;6.70;75.24;99578.16;5097228;28;20040;-66
2023/02/23 06:01:51;;;;;;;0.38;0.38;;;;;;;6.73;76.02;99582.41;5096827;28;20040;-66
2023/02/23 06:04:22;;;;;;;0.73;0.73;;;;;;;6.67;75.67;99578.09;5096875;28;20040;-66
2023/02/23 06:06:51;;;;;;;1.15;0.90;;;;;;;6.65;76.00;99592.47;5096786;28;20111;-66
2023/02/23 06:09:20;;;;;;;0.73;0.73;;;;;;;6.67;76.18;99593.31;5097084;28;20397;-66
2023/02/23 06:11:49;;;;;;;1.42;1.33;;;;;;;6.68;75.75;99589.97;5097230;28;20579;-66
2023/02/23 06:14:17;;;;;;;0.50;0.50;;;;;;;6.67;75.89;99595.84;5096771;28;20058;-66
2023/02/23 06:16:48;;;;;;;1.13;1.02;;;;;;;6.65;75.79;99595.00;5096590;28;20042;-66
2023/02/23 06:19:17;;;;;;;1.63;1.52;;;;;;;6.67;75.99;99603.47;5096899;28;20494;-66
2023/02/23 06:21:45;;;;;;;0.80;0.80;;;;;;;6.66;76.15;99606.84;5095693;28;20090;-66
2023/02/23 06:24:14;;;;;;;1.20;1.10;;;;;;;6.71;76.06;99610.31;5095217;28;20040;-66
2023/02/23 06:26:43;;;;;;;6.60;3.03;;;;;;;6.67;75.80;99598.41;5095242;28;20059;-66
2023/02/23 06:29:13;;;;;;;2.80;2.58;;;;;;;6.74;76.14;99617.94;5095101;28;20046;-66
2023/02/23 06:31:42;;;;;;;1.80;1.70;;;;;;;6.77;75.90;99623.91;5095476;28;20052;-66
2023/02/23 06:34:12;;;;;;;4.33;2.67;;;;;;;6.82;76.13;99622.25;5094632;28;20041;-66
2023/02/23 06:36:41;;;;;;;3.95;2.13;;;;;;;6.85;75.83;99629.91;5094261;28;20288;-67
2023/02/23 06:39:11;;;;;;;2.85;1.67;;;;;;;6.83;76.09;99631.56;5094997;28;20528;-66
2023/02/23 06:41:40;;;;;;;1.42;1.33;;;;;;;6.84;76.10;99630.75;5095699;28;20066;-66
2023/02/23 06:44:09;;;;;;;0.63;0.63;;;;;;;6.88;75.85;99632.50;5095291;28;20047;-66
2023/02/23 06:46:38;;;;;;;0.40;0.40;;;;;;;6.89;75.58;99631.66;5095476;28;20040;-66
2023/02/23 06:49:06;;;;;;;2.67;2.45;;;;;;;6.92;75.97;99630.00;5094865;28;20068;-66
2023/02/23 06:51:37;;;;;;;1.63;1.33;;;;;;;6.95;75.94;99635.13;5094853;28;20055;-66
2023/02/23 06:54:05;;;;;;;6.30;3.28;;;;;;;6.96;76.18;99636.81;5095108;28;20072;-66
2023/02/23 06:56:34;;;;;;;5.82;2.72;;;;;;;6.97;75.56;99633.47;5094700;28;20040;-67
2023/02/23 06:59:03;;;;;;;7.30;2.60;;;;;;;6.99;75.61;99633.47;5094755;28;20048;-66
2023/02/23 07:01:32;;;;;;;2.88;1.13;;;;;;;7.02;75.85;99641.13;5094709;28;20591;-66
2023/02/23 07:04:00;;;;;;;0.80;0.80;;;;;;;7.03;75.42;99632.69;5095456;28;20478;-66
2023/02/23 07:06:30;;;;;;;1.17;1.10;;;;;;;7.06;76.01;99642.88;5094660;28;20069;-66
2023/02/23 07:09:00;;;;;;;2.17;1.98;;;;;;;7.09;75.60;99638.69;5094775;28;20064;-66
2023/02/23 07:11:29;;;;;;;2.42;1.85;;;;;;;7.12;75.50;99637.88;5094642;28;20125;-66
2023/02/23 07:13:58;;;;;;;12.20;1.90;;;;;;;7.14;75.20;99641.28;5094466;28;20040;-66
2023/02/23 07:16:27;;;;;;;2.35;2.15;;;;;;;7.14;75.19;99633.66;5094806;28;20134;-67
2023/02/23 07:18:56;;;;;;;1.80;1.40;;;;;;;7.16;74.60;99645.53;5094266;28;20052;-66
2023/02/23 07:21:25;;;;;;;3.80;1.23;;;;;;;7.21;75.45;99640.53;5046438;28;1349136;-66
2023/02/23 07:23:54;;;;;;;1.38;1.27;;;;;;;7.23;75.16;99641.38;5094895;28;20067;-66
2023/02/23 07:26:24;;;;;;;1.83;1.65;;;;;;;7.25;74.49;99634.63;5095217;28;20052;-66
2023/02/23 07:28:53;;;;;;;6.90;1.58;;;;;;;7.30;74.64;99643.16;5095241;28;20044;-66
2023/02/23 07:31:22;;;;;;;0.63;0.63;;;;;;;7.35;74.49;99636.44;5095419;28;20109;-66
2023/02/23 07:33:51;;;;;;;0.60;0.60;;;;;;;7.39;74.37;99638.19;5095006;28;20043;-66
2023/02/23 07:36:20;;;;;;;1.48;1.38;;;;;;;7.42;73.75;99645.84;5094942;28;20036;-67
2023/02/23 07:38:49;;;;;;;2.83;2.05;;;;;;;7.45;74.17;99638.25;5095058;28;20497;-67
2023/02/23 07:41:18;;;;;;;0.40;0.40;;;;;;;7.47;73.94;99643.34;5095298;28;20127;-67
2023/02/23 07:43:48;;;;;;;0.50;0.50;;;;;;;7.49;74.05;99639.13;5094929;28;20114;-67
2023/02/23 07:46:17;;;;;;;0.82;0.82;;;;;;;7.53;73.91;99641.75;5094112;28;20040;-67
2023/02/23 07:48:46;;;;;;;1.83;1.07;;;;;;;7.56;74.24;99640.94;5076476;28;20068;-67
2023/02/23 07:51:16;;;;;;;1.03;0.97;;;;;;;7.61;73.69;99644.34;5094861;28;20046;-66
2023/02/23 07:53:46;;;;;;;1.00;0.95;;;;;;;7.64;74.05;99642.69;5094792;28;20482;-66
2023/02/23 07:56:15;;;;;;;1.15;0.98;;;;;;;7.63;73.78;99638.44;5094226;28;20440;-66
2023/02/23 07:58:45;;;;;;;1.42;1.30;;;;;;;7.66;73.86;99643.56;5094832;28;20052;-66
2023/02/23 08:01:15;;;;;;;0.60;0.60;;;;;;;7.51;73.37;99623.09;5104455;28;20122;-66
2023/02/23 08:03:48;;;;;;;1.30;1.17;;;;;;;7.65;73.31;99641.88;5099939;28;20043;-65
2023/02/23 08:06:17;;;;;;;12.73;1.55;;;;;;;7.68;73.89;99639.34;5101157;28;20036;-67
2023/02/23 08:08:46;;;;;;;2.17;1.70;;;;;;;7.71;73.37;99641.91;5104587;27;20043;-66
2023/02/23 08:11:15;;;;;;;1.30;1.10;;;;;;;7.74;73.37;99641.09;5096357;28;20044;-66
2023/02/23 08:13:44;;;;;;;;;;;;;;;7.78;73.93;99643.69;5094677;28;20485;-66
2023/02/23 08:16:15;;;;;;;2.38;1.40;;;;;;;7.84;73.14;99643.75;5093737;28;19920;-66
2023/02/23 08:18:45;;;;;;;2.35;1.63;;;;;;;7.88;73.48;99645.47;5099969;28;20040;-66
2023/02/23 08:21:14;;;;;;;10.40;1.75;;;;;;;7.93;73.88;99648.06;5110487;28;20498;-66
2023/02/23 08:23:43;;;;;;;0.52;0.50;;;;;;;7.98;72.97;99647.28;5103077;28;20044;-66
2023/02/23 08:26:12;;;;;;;1.40;1.30;;;;;;;7.97;73.42;99645.56;5094457;28;20367;-66
2023/02/23 08:28:44;;;;;;;1.25;1.15;;;;;;;8.05;73.32;99646.50;5095697;28;20068;-67
2023/02/23 08:31:13;;;;;;;1.67;1.13;;;;;;;8.10;73.48;99646.53;5094099;28;20048;-66
2023/02/23 08:33:42;;;;;;;1.02;1.00;;;;;;;8.13;73.92;99643.16;5094364;28;20048;-66
2023/02/23 08:36:12;;;;;;;0.70;0.70;;;;;;;8.23;73.11;99647.50;5104309;28;20122;-67
2023/02/23 08:38:41;;;;;;;0.88;0.75;;;;;;;8.29;73.59;99650.94;5099845;28;20040;-66
2023/02/23 08:41:09;;;;;;;1.13;1.05;;;;;;;8.27;73.15;99656.88;5105837;28;20139;-67
2023/02/23 08:43:38;;;;;;;2.53;1.70;;;;;;;8.26;73.55;99653.47;5110865;28;20047;-66
2023/02/23 08:46:07;;;;;;;1.57;0.90;;;;;;;8.32;72.73;99660.31;5102765;28;20043;-66
2023/02/23 08:48:37;;;;;;;1.02;0.95;;;;;;;8.40;72.84;99656.97;5094287;28;20281;-67
2023/02/23 08:51:06;;;;;;;;;;;;;;;8.44;72.41;99655.31;5094171;28;20109;-67
2023/02/23 08:53:36;;;;;;;1.15;1.08;;;;;;;8.53;72.69;99657.91;5092439;28;19999;-66
2023/02/23 08:56:07;;;;;;;1.48;1.00;;;;;;;8.59;72.95;99657.97;5093959;28;20044;-67
2023/02/23 08:58:36;;;;;;;0.63;0.63;;;;;;;8.62;72.71;99652.88;5093983;28;20052;-66
2023/02/23 09:01:05;;;;;;;;;;;;;;;8.66;71.78;99649.53;5094069;28;20148;-66
2023/02/23 09:03:35;;;;;;;0.93;0.88;;;;;;;8.64;72.02;99648.66;5093567;28;19926;-66
2023/02/23 09:06:09;;;;;;;0.40;0.40;;;;;;;8.67;72.12;99646.13;5109076;28;20048;-66
2023/02/23 09:08:39;;;;;;;5.65;3.55;;;;;;;8.79;71.61;99656.38;5093329;28;20055;-66
2023/02/23 09:11:08;;;;;;;1.55;1.23;;;;;;;8.87;72.12;99653.88;5093084;28;20044;-68
2023/02/23 09:13:37;;;;;;;1.83;1.60;;;;;;;8.95;71.97;99650.53;5102092;28;20044;-66
2023/02/23 09:16:07;;;;;;;1.42;1.33;;;;;;;9.00;71.69;99653.94;5104681;28;20047;-66
2023/02/23 09:18:36;;;;;;;1.65;1.23;;;;;;;9.00;71.31;99651.41;5098961;28;20123;-66
2023/02/23 09:21:17;;;;;;;0.60;0.60;;;;;;;9.06;71.48;99651.44;5113551;28;20051;-65
2023/02/23 09:23:50;;;;;;;1.35;1.10;;;;;;;9.16;71.64;99658.28;5105685;28;20040;-66
2023/02/23 09:26:20;;;;;;;1.55;1.30;;;;;;;9.16;70.71;99652.34;5093708;28;20516;-66
2023/02/23 09:28:49;;;;;;;1.30;1.20;;;;;;;9.13;71.07;99653.19;5107465;28;20047;-66
2023/02/23 09:31:21;;;;;;;2.13;1.90;;;;;;;9.26;70.22;99662.56;5113748;28;20089;-66
2023/02/23 09:33:51;;;;;;;0.80;0.80;;;;;;;9.36;70.43;99671.06;5113699;28;20288;-66
2023/02/23 09:36:22;;;;;;;1.02;0.95;;;;;;;9.44;70.72;99660.09;5113717;28;20043;-66
2023/02/23 09:38:56;;;;;;;0.90;0.90;;;;;;;9.55;70.61;99665.19;5113664;28;20054;-66
2023/02/23 09:41:59;;;;;;;1.42;1.33;;;;;;;9.61;70.65;99662.69;5109133;28;20486;-66
2023/02/23 09:44:45;;;;;;;0.75;0.75;;;;;;;9.58;69.74;99660.13;5096626;28;20089;-66
2023/02/23 09:47:31;;;;;;;5.88;3.28;;;;;;;9.61;69.28;99661.84;5107779;28;20070;-67
2023/02/23 09:50:06;;;;;;;1.52;1.23;;;;;;;9.62;69.14;99653.34;5102186;28;20082;-66
2023/02/23 09:52:40;;;;;;;1.60;1.50;;;;;;;9.74;68.64;99663.56;5113781;28;20074;-66
2023/02/23 09:55:14;;;;;;;2.03;1.55;;;;;;;9.77;68.56;99661.00;5106597;28;20094;-66
2023/02/23 09:57:46;;;;;;;1.27;1.17;;;;;;;9.92;68.75;99658.50;5098445;28;20493;-66
2023/02/23 10:00:19;;;;;;;6.07;1.48;;;;;;;10.04;68.19;99656.81;5093264;28;20069;-67
2023/02/23 10:03:03;;;;;;;1.70;1.60;;;;;;;10.12;67.96;99654.31;5093037;28;20074;-67
2023/02/23 10:05:38;;;;;;;9.38;1.23;;;;;;;10.12;68.07;99659.41;5099673;28;20355;-67
2023/02/23 10:08:17;;;;;;;0.95;0.75;;;;;;;10.16;67.35;99650.91;5113689;28;20047;-66
2023/02/23 10:10:51;;;;;;;1.97;1.27;;;;;;;10.21;66.47;99661.97;5116877;28;20043;-66
2023/02/23 10:13:31;;;;;;;2.20;1.73;;;;;;;10.31;66.83;99658.56;5099746;28;20509;-66
2023/02/23 10:16:07;;;;;;;0.95;0.90;;;;;;;10.34;66.42;99663.66;5096631;28;20514;-66
2023/02/23 10:18:42;;;;;;;3.78;2.10;;;;;;;10.42;65.91;99666.19;5103598;28;20452;-66
2023/02/23 10:21:18;;;;;;;1.50;1.33;;;;;;;10.42;66.16;99656.84;5101102;28;20059;-67
2023/02/23 10:23:53;;;;;;;6.53;1.33;;;;;;;10.53;65.87;99660.22;5116809;28;20048;-66
2023/02/23 10:26:30;;;;;;;0.60;0.60;;;;;;;10.62;65.03;99659.38;5116864;28;20561;-68
2023/02/23 10:28:59;;;;;;;0.45;0.45;;;;;;;10.45;64.82;99656.00;5109596;28;20464;-66
2023/02/23 10:31:37;;;;;;;2.05;1.08;;;;;;;10.28;64.50;99653.47;5112315;28;20043;-65
2023/02/23 10:34:13;;;;;;;0.73;0.73;;;;;;;10.17;64.92;99644.13;5116659;28;20078;-66
2023/02/23 10:36:48;;;;;;;1.13;1.02;;;;;;;10.25;64.98;99658.56;5117001;28;20120;-66
2023/02/23 10:39:17;;;;;;;1.52;1.35;;;;;;;10.36;65.06;99656.88;5116554;28;20050;-66
2023/02/23 10:41:47;;;;;;;8.10;1.30;;;;;;;10.47;64.83;99647.50;5116518;27;20039;-67
2023/02/23 10:44:21;;;;;;;1.42;1.33;;;;;;;10.41;64.21;99649.22;5116755;28;20309;-66
2023/02/23 10:46:54;;;;;;;0.63;0.63;;;;;;;10.36;64.50;99643.25;5116804;28;20047;-66
2023/02/23 10:49:29;;;;;;;7.70;2.13;;;;;;;10.41;64.54;99642.41;5116401;28;20056;-66
2023/02/23 10:52:01;;;;;;;1.63;1.52;;;;;;;10.54;64.27;99641.53;5116352;28;20040;-67
2023/02/23 10:54:43;;;;;;;0.65;0.65;;;;;;;10.60;64.11;99636.44;5105171;28;20040;-66
2023/02/23 10:57:22;;;;;;;1.25;1.15;;;;;;;10.67;63.94;99638.13;5095842;28;20043;-67
2023/02/23 11:00:08;;;;;;;1.40;1.30;;;;;;;10.75;64.23;99638.09;5095652;28;20048;-67
2023/02/23 11:02:37;;;;;;;1.42;1.33;;;;;;;10.79;63.91;99632.13;5096299;28;20054;-66
2023/02/23 11:05:07;;;;;;;0.67;0.67;;;;;;;10.78;63.52;99623.63;5095633;28;20068;-67
2023/02/23 11:07:35;;;;;;;1.25;1.15;;;;;;;10.71;63.24;99618.53;5097527;28;20502;-66
2023/02/23 11:10:24;;;;;;;8.17;1.43;;;;;;;10.71;63.07;99616.84;5095482;28;20050;-66
2023/02/23 11:12:55;;;;;;;0.85;0.70;;;;;;;10.72;62.22;99618.50;5111358;28;20061;-67
2023/02/23 11:15:29;;;;;;;1.00;0.88;;;;;;;10.68;61.76;99616.84;5095887;28;20063;-66
2023/02/23 11:18:22;;;;;;;1.42;1.25;;;;;;;10.65;61.52;99614.28;5095571;28;20044;-66
2023/02/23 11:20:52;;;;;;;0.57;0.55;;;;;;;10.65;61.60;99614.28;5094189;28;20091;-66
2023/02/23 11:23:27;;;;;;;0.50;0.43;;;;;;;10.62;61.78;99604.09;5095310;28;20048;-66
2023/02/23 11:26:00;;;;;;;1.50;1.05;;;;;;;10.56;62.16;99606.66;5095400;28;20051;-65
2023/02/23 11:28:33;;;;;;;2.30;1.05;;;;;;;10.59;61.96;99598.13;5095223;28;20465;-65
2023/02/23 11:31:09;;;;;;;1.30;1.20;;;;;;;10.58;62.23;99610.03;5095394;28;20131;-66
2023/02/23 11:33:40;;;;;;;1.42;1.33;;;;;;;10.54;61.90;99605.81;5095257;28;20052;-66
2023/02/23 11:36:19;;;;;;;0.68;0.68;;;;;;;10.52;61.51;99602.41;5095141;28;20054;-66
2023/02/23 11:38:48;;;;;;;0.57;0.57;;;;;;;10.45;62.10;99600.72;5095092;28;20048;-66
2023/02/23 11:41:22;;;;;;;1.17;1.08;;;;;;;10.48;62.38;99598.19;5094923;28;20036;-69
2023/02/23 11:43:58;;;;;;;33.80;2.13;;;;;;;10.49;62.34;99594.75;5104377;28;20420;-67
2023/02/23 11:46:30;;;;;;;0.80;0.80;;;;;;;10.54;62.83;99582.84;5115301;28;20048;-66
2023/02/23 11:49:02;;;;;;;0.55;0.55;;;;;;;10.56;62.41;99583.69;5112879;28;20040;-66
2023/02/23 11:51:35;;;;;;;1.75;0.98;;;;;;;10.51;62.23;99575.19;5106346;28;20052;-65
2023/02/23 11:54:05;;;;;;;0.60;0.60;;;;;;;10.51;61.87;99579.47;5111582;28;20482;-66
2023/02/23 11:56:35;;;;;;;2.65;1.75;;;;;;;10.53;62.09;99580.31;5095394;28;20474;-66
2023/02/23 11:59:10;;;;;;;1.30;0.88;;;;;;;10.58;62.19;99571.75;5094905;28;20040;-66
2023/02/23 12:01:44;;;;;;;0.73;0.73;;;;;;;10.63;61.82;99574.31;5094973;28;20147;-66
2023/02/23 12:04:29;;;;;;;0.52;0.52;;;;;;;10.56;62.15;99573.47;5101041;28;20397;-66
2023/02/23 12:07:28;;;;;;;3.13;2.00;;;;;;;10.59;62.14;99573.47;5114910;28;20048;-66
2023/02/23 12:10:02;;;;;;;1.55;1.45;;;;;;;10.61;61.79;99576.88;5100478;28;20378;-66
2023/02/23 12:12:32;;;;;;;2.33;1.10;;;;;;;10.62;61.61;99568.38;5093889;28;20055;-66
2023/02/23 12:15:08;;;;;;;;;;;;;;;10.65;61.64;99563.22;5094958;28;20044;-66
2023/02/23 12:17:44;;;;;;;0.30;0.30;;;;;;;10.72;61.90;99570.03;5096340;28;19926;-66
2023/02/23 12:20:20;;;;;;;0.50;0.50;;;;;;;10.70;62.29;99566.63;5114465;28;20058;-66
2023/02/23 12:22:54;;;;;;;1.52;1.35;;;;;;;10.71;62.88;99568.34;5114947;28;20109;-66
2023/02/23 12:25:28;;;;;;;1.67;1.58;;;;;;;10.72;62.96;99570.03;5114849;28;20375;-66
2023/02/23 12:28:06;;;;;;;12.43;1.02;;;;;;;10.73;62.60;99570.88;5112348;28;20051;-66
2023/02/23 12:30:53;;;;;;;0.50;0.50;;;;;;;10.70;62.43;99561.53;5102582;28;20101;-66
2023/02/23 12:33:32;;;;;;;2.58;1.67;;;;;;;10.74;62.41;99559.81;5094028;28;20070;-66
2023/02/23 12:36:09;;;;;;;0.57;0.57;;;;;;;10.73;62.05;99560.66;5094039;28;20040;-65
2023/02/23 12:38:49;;;;;;;4.15;0.80;;;;;;;10.67;62.25;99561.56;5094022;28;20044;-66
2023/02/23 12:41:25;;;;;;;2.65;1.20;;;;;;;10.68;61.86;99563.22;5093997;28;20494;-66
2023/02/23 12:44:01;;;;;;;0.60;0.60;;;;;;;10.70;62.18;99558.97;5094167;28;20130;-66
2023/02/23 12:46:39;;;;;;;1.38;0.85;;;;;;;10.69;61.98;99559.84;5093850;28;20097;-66
2023/02/23 12:49:18;;;;;;;0.63;0.60;;;;;;;10.69;62.28;99544.53;5109719;28;20545;-66
2023/02/23 12:51:53;;;;;;;0.30;0.30;;;;;;;10.72;62.19;99538.56;5104715;28;20043;-66
2023/02/23 12:54:22;;;;;;;1.65;1.55;;;;;;;10.74;62.04;99535.16;5107710;28;20032;-66
2023/02/23 12:56:59;;;;;;;0.90;0.90;;;;;;;10.80;61.51;99538.53;5102504;28;20043;-66
2023/02/23 12:59:54;;;;;;;1.88;1.10;;;;;;;10.86;61.79;99535.94;5114356;28;20048;-66
2023/02/23 13:02:31;;;;;;;0.75;0.73;;;;;;;10.90;61.79;99522.31;5114018;28;20059;-66
2023/02/23 13:05:15;;;;;;;0.70;0.70;;;;;;;10.97;61.75;99531.63;5114027;28;20055;-66
2023/02/23 13:07:52;;;;;;;0.63;0.45;;;;;;;11.02;61.41;99524.78;5113952;28;20071;-66
2023/02/23 13:10:38;;;;;;;1.20;1.10;;;;;;;11.04;60.92;99526.50;5114126;28;20482;-66
2023/02/23 13:13:22;;;;;;;2.58;1.83;;;;;;;11.04;60.76;99528.19;5112182;28;20550;-66
2023/02/23 13:16:00;;;;;;;1.45;1.17;;;;;;;11.06;60.49;99523.94;5109209;28;20050;-66
2023/02/23 13:18:36;;;;;;;0.40;0.40;;;;;;;11.09;59.62;99518.78;5113736;28;20044;-65
2023/02/23 13:21:13;;;;;;;5.35;1.85;;;;;;;11.05;59.96;99522.22;5110857;28;20085;-65
2023/02/23 13:23:54;;;;;;;0.50;0.50;;;;;;;11.03;59.98;99519.69;5101654;28;20047;-65
2023/02/23 13:26:33;;;;;;;2.63;1.95;;;;;;;11.05;59.67;99517.13;5113732;28;20100;-66
2023/02/23 13:29:08;;;;;;;0.38;0.38;;;;;;;11.06;59.66;99519.66;5114430;28;20147;-66